createdAt,value
2023-01-19T00:04:20.993Z,0.89
2023-01-19T00:09:23.129Z,0.83
2023-01-19T00:14:25.123Z,0.92
2023-01-19T00:19:28.667Z,0.96
2023-01-19T00:24:30.603Z,0.92
2023-01-19T00:29:34.179Z,0.97
2023-01-19T00:34:39.586Z,0.94
2023-01-19T00:39:41.606Z,0.83
2023-01-19T00:44:43.625Z,0.94
2023-01-19T00:49:46.869Z,1.07
2023-01-19T00:54:48.952Z,1.10
2023-01-19T00:59:50.876Z,1.04
2023-01-19T01:04:56.735Z,1.24
2023-01-19T01:09:58.670Z,1.23
2023-01-19T01:15:00.619Z,1.08
2023-01-19T01:27:55.204Z,1.32
2023-01-19T01:32:58.983Z,1.34
2023-01-19T01:38:01.385Z,1.33
2023-01-19T01:43:03.615Z,1.17
2023-01-19T01:48:12.359Z,1.20
2023-01-19T01:53:15.932Z,1.39
2023-01-19T01:58:17.933Z,1.19
2023-01-19T02:03:23.593Z,1.22
2023-01-19T02:08:50.163Z,1.13
2023-01-19T02:13:52.840Z,1.18
2023-01-19T02:18:57.326Z,1.09
2023-01-19T02:24:02.904Z,1.26
2023-01-19T02:29:08.200Z,1.34
2023-01-19T02:41:18.001Z,1.19
2023-01-19T02:46:20.076Z,1.09
2023-01-19T02:51:24.961Z,1.06
2023-01-19T02:56:54.958Z,0.95
2023-01-19T03:02:10.701Z,1.10
2023-01-19T03:07:20.870Z,0.92
2023-01-19T03:19:34.858Z,1.13
2023-01-19T03:24:40.837Z,1.28
2023-01-19T03:29:48.257Z,1.34
2023-01-19T03:34:54.824Z,1.50
2023-01-19T03:39:56.880Z,1.35
2023-01-19T03:45:03.591Z,1.31
2023-01-19T03:50:13.739Z,1.26
2023-01-19T03:55:15.651Z,1.26
2023-01-19T04:00:18.304Z,1.31
2023-01-19T04:05:22.367Z,1.14
2023-01-19T04:10:25.203Z,1.26
2023-01-19T04:15:28.687Z,1.38
2023-01-19T04:20:32.028Z,1.20
2023-01-19T04:25:33.946Z,0.99
2023-01-19T04:30:35.936Z,0.88
2023-01-19T04:35:39.236Z,0.99
2023-01-19T04:40:41.249Z,1.04
2023-01-19T04:45:44.782Z,1.17
2023-01-19T04:50:48.152Z,1.11
2023-01-19T04:55:53.526Z,0.99
2023-01-19T05:00:55.527Z,0.87
2023-01-19T05:05:59.083Z,0.69
2023-01-19T05:11:01.109Z,0.85
2023-01-19T05:16:03.359Z,0.85
2023-01-19T05:21:07.303Z,0.93
2023-01-19T05:26:10.361Z,0.81
2023-01-19T05:31:12.366Z,0.60
2023-01-19T05:36:15.687Z,0.68
2023-01-19T05:41:17.769Z,0.39
2023-01-19T05:46:19.738Z,0.41
2023-01-19T05:51:23.016Z,0.34
2023-01-19T05:56:24.992Z,0.27
2023-01-19T06:01:27.125Z,0.37
2023-01-19T06:06:30.439Z,0.24
2023-01-19T06:11:32.363Z,0.14
2023-01-19T06:16:34.424Z,0.25
2023-01-19T06:21:38.198Z,0.31
2023-01-19T06:26:40.206Z,0.18
2023-01-19T06:31:42.582Z,0.30
2023-01-19T06:36:46.487Z,0.37
2023-01-19T06:41:48.469Z,0.45
2023-01-19T06:46:50.402Z,0.36
2023-01-19T06:51:53.799Z,0.53
2023-01-19T06:56:55.779Z,0.49
2023-01-19T07:01:57.873Z,0.43
2023-01-19T07:07:01.453Z,0.55
2023-01-19T07:12:03.812Z,0.51
2023-01-19T07:17:05.810Z,0.41
2023-01-19T07:22:09.081Z,0.63
2023-01-19T07:27:14.704Z,1.06
2023-01-19T07:32:16.637Z,0.81
2023-01-19T07:37:20.188Z,0.61
2023-01-19T07:42:22.151Z,0.88
2023-01-19T07:47:24.116Z,0.97
2023-01-19T07:52:27.379Z,0.88
2023-01-19T07:57:29.885Z,1.01
2023-01-19T08:02:33.979Z,1.09
2023-01-19T08:07:37.298Z,1.17
2023-01-19T08:12:39.336Z,0.89
2023-01-19T08:17:41.292Z,0.79
2023-01-19T08:22:47.202Z,0.56
2023-01-19T08:27:49.154Z,0.46
2023-01-19T08:32:51.274Z,0.31
2023-01-19T08:37:54.545Z,0.41
2023-01-19T08:43:00.962Z,0.42
2023-01-19T08:48:04.002Z,0.46
2023-01-19T08:53:07.828Z,0.25
2023-01-19T08:58:10.142Z,0.06
2023-01-19T09:03:13.698Z,0.28
2023-01-19T09:08:17.107Z,0.12
2023-01-19T09:13:20.202Z,0.15
2023-01-19T09:18:22.466Z,0.44
2023-01-19T09:23:26.024Z,0.58
2023-01-19T09:28:29.362Z,0.30
2023-01-19T09:33:31.355Z,-0.10
2023-01-19T09:38:34.674Z,0.18
2023-01-19T09:43:41.095Z,0.08
2023-01-19T09:48:46.557Z,0.10
2023-01-19T09:53:58.293Z,0.05
2023-01-19T09:59:00.799Z,0.09
2023-01-19T10:04:27.404Z,-0.05
2023-01-19T10:09:35.838Z,-0.08
2023-01-19T10:14:45.968Z,-0.13
2023-01-19T10:19:51.662Z,-0.23
2023-01-19T10:24:56.976Z,-0.15
2023-01-19T10:30:00.056Z,-0.33
2023-01-19T10:35:12.726Z,-0.37
2023-01-19T10:40:25.417Z,-0.42
2023-01-19T10:45:30.763Z,-0.39
2023-01-19T10:50:34.941Z,-0.22
2023-01-19T10:55:41.741Z,-0.21
2023-01-19T11:00:44.320Z,-0.09
2023-01-19T11:05:46.513Z,-0.02
2023-01-19T11:10:58.176Z,-0.08
2023-01-19T11:16:05.903Z,0.03
2023-01-19T11:21:10.486Z,0.03
2023-01-19T11:26:24.638Z,0.09
2023-01-19T11:31:33.079Z,0.08
2023-01-19T11:36:36.943Z,0.06
2023-01-19T11:41:40.835Z,-0.02
2023-01-19T11:46:45.011Z,-0.08
2023-01-19T11:51:51.158Z,-0.33
2023-01-19T11:56:56.703Z,-0.33
2023-01-19T12:02:02.388Z,-0.22
2023-01-19T12:07:10.341Z,-0.21
2023-01-19T12:12:28.771Z,-0.21
2023-01-19T12:17:35.129Z,-0.33
2023-01-19T12:22:44.708Z,-0.15
2023-01-19T12:27:49.510Z,-0.25
2023-01-19T12:32:51.580Z,-0.30
2023-01-19T12:37:53.489Z,-0.48
2023-01-19T12:43:00.726Z,-0.47
2023-01-19T12:48:04.407Z,-0.44
2023-01-19T12:53:16.811Z,-0.50
2023-01-19T12:58:23.010Z,-0.38
2023-01-19T13:03:57.044Z,-0.44
2023-01-19T13:09:00.727Z,-0.50
2023-01-19T13:14:35.418Z,-0.50
2023-01-19T13:19:46.006Z,-0.60
2023-01-19T13:25:10.336Z,-0.58
2023-01-19T13:30:17.498Z,-0.77
2023-01-19T13:35:22.378Z,-0.69
2023-01-19T13:40:32.469Z,-0.57
2023-01-19T13:45:38.031Z,-0.58
2023-01-19T13:50:42.726Z,-0.82
2023-01-19T13:55:44.714Z,-0.96
2023-01-19T14:00:46.709Z,-0.87
2023-01-19T14:05:52.400Z,-0.67
2023-01-19T14:11:02.484Z,-0.76
2023-01-19T14:16:08.012Z,-0.77
2023-01-19T14:21:13.451Z,-0.82
2023-01-19T14:26:45.961Z,-0.85
2023-01-19T14:31:49.738Z,-0.77
2023-01-19T14:36:53.387Z,-0.83
2023-01-19T14:41:59.099Z,-0.73
2023-01-19T14:47:01.556Z,-1.02
2023-01-19T14:52:08.348Z,-1.11
2023-01-19T14:57:12.563Z,-1.03
2023-01-19T15:02:14.779Z,-1.04
2023-01-19T15:07:19.396Z,-1.10
2023-01-19T15:12:26.766Z,-1.20
2023-01-19T15:17:28.804Z,-1.11
2023-01-19T15:22:32.132Z,-1.11
2023-01-19T15:27:34.092Z,-1.13
2023-01-19T15:32:36.137Z,-1.17
2023-01-19T15:37:39.422Z,-1.21
2023-01-19T15:42:56.491Z,-1.20
2023-01-19T15:47:58.545Z,-0.93
2023-01-19T15:53:01.966Z,-1.01
2023-01-19T15:58:04.099Z,-1.01
2023-01-19T16:03:06.122Z,-0.88
2023-01-19T16:08:09.788Z,-0.93
2023-01-19T16:13:12.184Z,-0.85
2023-01-19T16:18:14.213Z,-0.93
2023-01-19T16:23:17.543Z,-0.91
2023-01-19T16:28:19.587Z,-1.02
2023-01-19T16:33:21.642Z,-1.05
2023-01-19T16:38:25.061Z,-1.16
2023-01-19T16:43:28.335Z,-1.08
2023-01-19T16:48:32.229Z,-0.97
2023-01-19T16:53:35.640Z,-0.88
2023-01-19T16:58:38.361Z,-0.97
2023-01-19T17:03:40.950Z,-0.89
2023-01-19T17:08:44.339Z,-1.12
2023-01-19T17:13:47.286Z,-1.12
2023-01-19T17:18:49.473Z,-1.08
2023-01-19T17:23:54.333Z,-0.83
2023-01-19T17:28:58.812Z,-0.71
2023-01-19T17:34:01.542Z,-1.07
2023-01-19T17:39:07.950Z,-1.14
2023-01-19T17:44:10.520Z,-1.16
2023-01-19T17:49:12.481Z,-1.29
2023-01-19T17:54:15.818Z,-1.35
2023-01-19T17:59:17.903Z,-1.22
2023-01-19T18:04:19.925Z,-1.34
2023-01-19T18:09:23.292Z,-1.34
2023-01-19T18:14:25.411Z,-1.33
2023-01-19T18:19:27.498Z,-1.40
2023-01-19T18:24:30.954Z,-1.42
2023-01-19T18:29:33.083Z,-1.38
2023-01-19T18:34:35.377Z,-1.34
2023-01-19T18:39:38.736Z,-1.00
2023-01-19T18:44:40.872Z,-1.25
2023-01-19T18:49:42.843Z,-1.29
2023-01-19T18:54:47.879Z,-1.24
2023-01-19T18:59:49.997Z,-1.14
2023-01-19T19:04:52.018Z,-1.15
2023-01-19T19:09:55.384Z,-1.15
2023-01-19T19:14:57.440Z,-1.27
2023-01-19T19:19:59.409Z,-1.41
2023-01-19T19:25:02.820Z,-1.51
2023-01-19T19:30:05.661Z,-1.47
2023-01-19T19:35:08.394Z,-1.38
2023-01-19T19:40:12.745Z,-1.47
2023-01-19T19:45:15.629Z,-1.44
2023-01-19T19:50:17.771Z,-1.38
2023-01-19T19:55:21.205Z,-1.50
2023-01-19T20:00:23.471Z,-1.46
2023-01-19T20:05:25.450Z,-1.43
2023-01-19T20:10:30.002Z,-1.41
2023-01-19T20:15:32.274Z,-1.54
2023-01-19T20:20:34.625Z,-1.43
2023-01-19T20:25:40.033Z,-1.50
2023-01-19T20:30:42.166Z,-1.40
2023-01-19T20:35:44.237Z,-1.46
2023-01-19T20:40:47.587Z,-1.31
2023-01-19T20:45:49.641Z,-1.44
2023-01-19T20:50:57.713Z,-1.43
2023-01-19T20:56:06.143Z,-1.38
2023-01-19T21:01:12.741Z,-1.19
2023-01-19T21:06:15.652Z,-1.37
2023-01-19T21:11:21.066Z,-1.39
2023-01-19T21:16:24.404Z,-1.45
2023-01-19T21:21:31.515Z,-1.48
2023-01-19T21:26:35.927Z,-1.46
2023-01-19T21:31:37.973Z,-1.43
2023-01-19T21:36:40.151Z,-1.39
2023-01-19T21:41:44.622Z,-1.34
2023-01-19T21:46:46.628Z,-1.35
2023-01-19T21:51:50.601Z,-1.30
2023-01-19T21:56:53.927Z,-1.38
2023-01-19T22:01:56.095Z,-1.36
2023-01-19T22:06:58.166Z,-1.37
2023-01-19T22:12:01.825Z,-1.50
2023-01-19T22:17:04.803Z,-1.44
2023-01-19T22:22:06.799Z,-1.47
2023-01-19T22:27:10.089Z,-1.48
2023-01-19T22:32:12.030Z,-1.47
2023-01-19T22:37:14.042Z,-1.53
2023-01-19T22:42:17.347Z,-1.47
2023-01-19T22:47:19.289Z,-1.51
2023-01-19T22:52:21.259Z,-1.55
2023-01-19T22:57:24.866Z,-1.59
2023-01-19T23:02:26.879Z,-1.53
2023-01-19T23:07:28.838Z,-1.67
2023-01-19T23:12:32.149Z,-1.61
2023-01-19T23:17:34.090Z,-1.50
2023-01-19T23:22:36.443Z,-1.61
2023-01-19T23:27:39.738Z,-1.71
2023-01-19T23:32:46.886Z,-1.44
2023-01-19T23:37:49.106Z,-1.46
2023-01-19T23:42:54.416Z,-1.60
2023-01-19T23:47:56.484Z,-1.62
2023-01-19T23:52:58.465Z,-1.32
2023-01-19T23:58:01.784Z,-1.36
